sensor_id;sensor_type;location;lat;lon;timestamp;pressure;altitude;pressure_sealevel;temperature;humidity
44138;BME280;29800;55.942;37.314;2023-02-22T00:01:31;98185.09;;;-11.41;49.21
44138;BME280;29800;55.942;37.314;2023-02-22T00:04:04;98185.91;;;-11.40;49.56
44138;BME280;29800;55.942;37.314;2023-02-22T00:06:31;98194.28;;;-11.45;49.24
44138;BME280;29800;55.942;37.314;2023-02-22T00:08:58;98186.56;;;-11.56;49.55
44138;BME280;29800;55.942;37.314;2023-02-22T00:11:25;98199.38;;;-11.61;49.91
44138;BME280;29800;55.942;37.314;2023-02-22T00:13:51;98207.72;;;-11.66;50.04
44138;BME280;29800;55.942;37.314;2023-02-22T00:16:23;98206.63;;;-11.63;49.96
44138;BME280;29800;55.942;37.314;2023-02-22T00:18:49;98212.84;;;-11.65;49.94
44138;BME280;29800;55.942;37.314;2023-02-22T00:21:17;98215.78;;;-11.68;49.97
44138;BME280;29800;55.942;37.314;2023-02-22T00:23:45;98222.22;;;-11.70;49.64
44138;BME280;29800;55.942;37.314;2023-02-22T00:26:13;98221.78;;;-11.66;49.87
44138;BME280;29800;55.942;37.314;2023-02-22T00:28:46;98226.06;;;-11.65;49.64
44138;BME280;29800;55.942;37.314;2023-02-22T00:31:12;98234.56;;;-11.71;49.93
44138;BME280;29800;55.942;37.314;2023-02-22T00:33:39;98227.25;;;-11.77;50.43
44138;BME280;29800;55.942;37.314;2023-02-22T00:36:07;98234.44;;;-11.79;49.90
44138;BME280;29800;55.942;37.314;2023-02-22T00:38:34;98234.44;;;-11.79;50.02
44138;BME280;29800;55.942;37.314;2023-02-22T00:41:01;98239.47;;;-11.86;49.90
44138;BME280;29800;55.942;37.314;2023-02-22T00:43:27;98245.53;;;-11.93;49.91
44138;BME280;29800;55.942;37.314;2023-02-22T00:45:53;98250.09;;;-11.95;50.42
44138;BME280;29800;55.942;37.314;2023-02-22T00:48:19;98256.38;;;-11.96;50.14
44138;BME280;29800;55.942;37.314;2023-02-22T00:50:46;98254.28;;;-12.03;50.30
44138;BME280;29800;55.942;37.314;2023-02-22T00:53:14;98261.78;;;-11.98;50.56
44138;BME280;29800;55.942;37.314;2023-02-22T00:55:40;98249.28;;;-11.96;50.20
44138;BME280;29800;55.942;37.314;2023-02-22T00:58:06;98259.84;;;-11.96;49.97
44138;BME280;29800;55.942;37.314;2023-02-22T01:00:37;98262.69;;;-11.89;50.06
44138;BME280;29800;55.942;37.314;2023-02-22T01:03:05;98256.72;;;-11.81;50.07
44138;BME280;29800;55.942;37.314;2023-02-22T01:05:32;98266.13;;;-11.79;49.95
44138;BME280;29800;55.942;37.314;2023-02-22T01:08:00;98260.59;;;-11.86;49.87
44138;BME280;29800;55.942;37.314;2023-02-22T01:10:28;98268.72;;;-11.97;50.16
44138;BME280;29800;55.942;37.314;2023-02-22T01:12:56;98274.44;;;-12.02;50.06
44138;BME280;29800;55.942;37.314;2023-02-22T01:15:25;98274.00;;;-12.07;50.32
44138;BME280;29800;55.942;37.314;2023-02-22T01:17:53;98279.88;;;-12.13;50.61
44138;BME280;29800;55.942;37.314;2023-02-22T01:20:21;98279.03;;;-12.13;50.48
44138;BME280;29800;55.942;37.314;2023-02-22T01:22:58;98272.50;;;-12.09;50.80
44138;BME280;29800;55.942;37.314;2023-02-22T01:25:26;98274.47;;;-12.11;50.00
44138;BME280;29800;55.942;37.314;2023-02-22T01:27:54;98282.13;;;-12.18;50.40
44138;BME280;29800;55.942;37.314;2023-02-22T01:30:23;98281.41;;;-12.20;50.46
44138;BME280;29800;55.942;37.314;2023-02-22T01:32:50;98282.94;;;-12.27;50.40
44138;BME280;29800;55.942;37.314;2023-02-22T01:35:17;98280.16;;;-12.26;50.25
44138;BME280;29800;55.942;37.314;2023-02-22T01:37:44;98290.59;;;-12.24;50.42
44138;BME280;29800;55.942;37.314;2023-02-22T01:40:17;98299.88;;;-12.20;50.56
44138;BME280;29800;55.942;37.314;2023-02-22T01:42:50;98295.72;;;-12.23;50.45
44138;BME280;29800;55.942;37.314;2023-02-22T01:48:12;98303.22;;;-12.18;50.38
44138;BME280;29800;55.942;37.314;2023-02-22T01:54:07;98312.38;;;-12.22;50.08
44138;BME280;29800;55.942;37.314;2023-02-22T01:56:37;98316.84;;;-12.32;50.24
44138;BME280;29800;55.942;37.314;2023-02-22T01:59:08;98326.13;;;-12.28;49.98
44138;BME280;29800;55.942;37.314;2023-02-22T02:01:39;98320.69;;;-12.27;49.83
44138;BME280;29800;55.942;37.314;2023-02-22T02:04:12;98328.75;;;-12.28;49.90
44138;BME280;29800;55.942;37.314;2023-02-22T02:06:41;98331.25;;;-12.36;49.93
44138;BME280;29800;55.942;37.314;2023-02-22T02:11:40;98343.34;;;-12.53;50.60
44138;BME280;29800;55.942;37.314;2023-02-22T02:14:08;98356.78;;;-12.47;50.52
44138;BME280;29800;55.942;37.314;2023-02-22T02:16:48;98350.84;;;-12.29;49.80
44138;BME280;29800;55.942;37.314;2023-02-22T02:19:43;98359.03;;;-12.13;49.88
44138;BME280;29800;55.942;37.314;2023-02-22T02:33:05;98377.91;;;-12.17;49.63
44138;BME280;29800;55.942;37.314;2023-02-22T02:38:34;98383.19;;;-12.27;49.91
44138;BME280;29800;55.942;37.314;2023-02-22T02:41:09;98389.53;;;-12.40;50.15
44138;BME280;29800;55.942;37.314;2023-02-22T02:43:44;98386.22;;;-12.42;50.24
44138;BME280;29800;55.942;37.314;2023-02-22T02:46:23;98397.75;;;-12.43;50.05
44138;BME280;29800;55.942;37.314;2023-02-22T02:48:57;98407.88;;;-12.38;50.05
44138;BME280;29800;55.942;37.314;2023-02-22T02:51:29;98399.41;;;-12.42;50.41
44138;BME280;29800;55.942;37.314;2023-02-22T02:53:58;98397.19;;;-12.36;49.54
44138;BME280;29800;55.942;37.314;2023-02-22T02:56:25;98400.38;;;-12.33;49.64
44138;BME280;29800;55.942;37.314;2023-02-22T02:58:52;98398.88;;;-12.35;49.41
44138;BME280;29800;55.942;37.314;2023-02-22T03:04:21;98402.19;;;-12.43;50.25
44138;BME280;29800;55.942;37.314;2023-02-22T03:09:40;98403.03;;;-12.43;49.79
44138;BME280;29800;55.942;37.314;2023-02-22T03:12:38;98407.59;;;-12.35;49.99
44138;BME280;29800;55.942;37.314;2023-02-22T03:15:25;98404.56;;;-12.21;49.18
44138;BME280;29800;55.942;37.314;2023-02-22T03:18:06;98414.84;;;-12.27;49.26
44138;BME280;29800;55.942;37.314;2023-02-22T03:20:49;98413.16;;;-12.28;49.19
44138;BME280;29800;55.942;37.314;2023-02-22T03:23:30;98426.47;;;-12.30;48.89
44138;BME280;29800;55.942;37.314;2023-02-22T03:26:03;98426.78;;;-12.43;49.19
44138;BME280;29800;55.942;37.314;2023-02-22T03:28:37;98426.88;;;-12.54;49.59
44138;BME280;29800;55.942;37.314;2023-02-22T03:31:24;98431.69;;;-12.59;49.56
44138;BME280;29800;55.942;37.314;2023-02-22T03:34:00;98429.75;;;-12.67;49.79
44138;BME280;29800;55.942;37.314;2023-02-22T03:36:33;98433.66;;;-12.61;49.92
44138;BME280;29800;55.942;37.314;2023-02-22T03:39:07;98443.78;;;-12.57;49.56
44138;BME280;29800;55.942;37.314;2023-02-22T03:41:35;98449.34;;;-12.60;49.56
44138;BME280;29800;55.942;37.314;2023-02-22T03:44:12;98461.16;;;-12.54;49.29
44138;BME280;29800;55.942;37.314;2023-02-22T03:46:41;98455.88;;;-12.54;49.44
44138;BME280;29800;55.942;37.314;2023-02-22T03:51:52;98451.66;;;-12.66;49.39
44138;BME280;29800;55.942;37.314;2023-02-22T03:54:20;98458.34;;;-12.62;49.28
44138;BME280;29800;55.942;37.314;2023-02-22T03:56:55;98463.50;;;-12.61;49.15
44138;BME280;29800;55.942;37.314;2023-02-22T03:59:23;98468.06;;;-12.63;48.88
44138;BME280;29800;55.942;37.314;2023-02-22T04:01:53;98474.47;;;-12.55;48.92
44138;BME280;29800;55.942;37.314;2023-02-22T04:04:20;98474.34;;;-12.54;48.77
44138;BME280;29800;55.942;37.314;2023-02-22T04:06:49;98475.03;;;-12.52;48.71
44138;BME280;29800;55.942;37.314;2023-02-22T04:09:17;98476.09;;;-12.64;48.47
44138;BME280;29800;55.942;37.314;2023-02-22T04:11:44;98480.94;;;-12.69;48.59
44138;BME280;29800;55.942;37.314;2023-02-22T04:14:11;98485.94;;;-12.66;48.65
44138;BME280;29800;55.942;37.314;2023-02-22T04:16:37;98487.63;;;-12.65;48.95
44138;BME280;29800;55.942;37.314;2023-02-22T04:19:07;98498.88;;;-12.63;48.20
44138;BME280;29800;55.942;37.314;2023-02-22T04:21:35;98503.31;;;-12.64;48.53
44138;BME280;29800;55.942;37.314;2023-02-22T04:24:02;98497.47;;;-12.58;48.28
44138;BME280;29800;55.942;37.314;2023-02-22T04:26:29;98507.91;;;-12.56;48.23
44138;BME280;29800;55.942;37.314;2023-02-22T04:28:57;98509.72;;;-12.57;48.22
44138;BME280;29800;55.942;37.314;2023-02-22T04:31:27;98514.84;;;-12.55;47.89
44138;BME280;29800;55.942;37.314;2023-02-22T04:33:56;98514.16;;;-12.57;47.68
44138;BME280;29800;55.942;37.314;2023-02-22T04:36:27;98513.13;;;-12.66;48.29
44138;BME280;29800;55.942;37.314;2023-02-22T04:38:53;98517.84;;;-12.69;48.47
44138;BME280;29800;55.942;37.314;2023-02-22T04:41:19;98524.41;;;-12.64;48.45
44138;BME280;29800;55.942;37.314;2023-02-22T04:43:46;98523.97;;;-12.69;48.16
44138;BME280;29800;55.942;37.314;2023-02-22T04:46:22;98532.19;;;-12.62;47.83
44138;BME280;29800;55.942;37.314;2023-02-22T04:48:50;98528.00;;;-12.65;48.19
44138;BME280;29800;55.942;37.314;2023-02-22T04:51:20;98526.91;;;-12.62;47.81
44138;BME280;29800;55.942;37.314;2023-02-22T04:53:58;98524.69;;;-12.57;47.67
44138;BME280;29800;55.942;37.314;2023-02-22T04:56:25;98530.75;;;-12.66;48.06
44138;BME280;29800;55.942;37.314;2023-02-22T04:58:51;98527.81;;;-12.73;47.77
44138;BME280;29800;55.942;37.314;2023-02-22T05:01:17;98530.94;;;-12.89;48.48
44138;BME280;29800;55.942;37.314;2023-02-22T05:03:45;98535.69;;;-12.83;48.00
44138;BME280;29800;55.942;37.314;2023-02-22T05:06:11;98534.47;;;-12.79;48.04
44138;BME280;29800;55.942;37.314;2023-02-22T05:08:38;98543.75;;;-12.74;47.95
44138;BME280;29800;55.942;37.314;2023-02-22T05:11:04;98540.16;;;-12.73;47.42
44138;BME280;29800;55.942;37.314;2023-02-22T05:13:30;98541.00;;;-12.73;48.18
44138;BME280;29800;55.942;37.314;2023-02-22T05:15:56;98545.72;;;-12.77;47.61
44138;BME280;29800;55.942;37.314;2023-02-22T05:18:22;98551.53;;;-12.73;47.80
44138;BME280;29800;55.942;37.314;2023-02-22T05:20:48;98543.69;;;-12.63;48.06
44138;BME280;29800;55.942;37.314;2023-02-22T05:23:14;98546.19;;;-12.62;47.47
44138;BME280;29800;55.942;37.314;2023-02-22T05:25:41;98558.00;;;-12.56;47.67
44138;BME280;29800;55.942;37.314;2023-02-22T05:28:11;98557.56;;;-12.61;47.55
44138;BME280;29800;55.942;37.314;2023-02-22T05:30:38;98563.09;;;-12.64;47.91
44138;BME280;29800;55.942;37.314;2023-02-22T05:33:04;98565.47;;;-12.61;47.48
44138;BME280;29800;55.942;37.314;2023-02-22T05:35:31;98564.66;;;-12.62;47.44
44138;BME280;29800;55.942;37.314;2023-02-22T05:37:57;98572.94;;;-12.66;48.00
44138;BME280;29800;55.942;37.314;2023-02-22T05:40:27;98572.50;;;-12.71;48.13
44138;BME280;29800;55.942;37.314;2023-02-22T05:42:54;98578.66;;;-12.61;48.33
44138;BME280;29800;55.942;37.314;2023-02-22T05:45:23;98588.81;;;-12.57;48.15
44138;BME280;29800;55.942;37.314;2023-02-22T05:47:50;98580.84;;;-12.66;47.63
44138;BME280;29800;55.942;37.314;2023-02-22T05:50:17;98589.06;;;-12.60;47.89
44138;BME280;29800;55.942;37.314;2023-02-22T05:52:45;98592.03;;;-12.74;48.06
44138;BME280;29800;55.942;37.314;2023-02-22T05:55:13;98589.22;;;-12.82;48.02
44138;BME280;29800;55.942;37.314;2023-02-22T05:57:39;98588.38;;;-12.83;48.22
44138;BME280;29800;55.942;37.314;2023-02-22T06:00:07;98586.25;;;-12.89;48.56
44138;BME280;29800;55.942;37.314;2023-02-22T06:02:39;98599.13;;;-12.74;47.98
44138;BME280;29800;55.942;37.314;2023-02-22T06:05:06;98594.03;;;-12.66;48.01
44138;BME280;29800;55.942;37.314;2023-02-22T06:07:32;98600.53;;;-12.70;47.59
44138;BME280;29800;55.942;37.314;2023-02-22T06:09:58;98608.75;;;-12.64;48.51
44138;BME280;29800;55.942;37.314;2023-02-22T06:12:24;98612.06;;;-12.41;48.09
44138;BME280;29800;55.942;37.314;2023-02-22T06:14:50;98611.72;;;-12.26;47.61
44138;BME280;29800;55.942;37.314;2023-02-22T06:17:16;98612.81;;;-12.29;47.64
44138;BME280;29800;55.942;37.314;2023-02-22T06:19:42;98617.53;;;-12.32;47.56
44138;BME280;29800;55.942;37.314;2023-02-22T06:22:16;98614.53;;;-12.18;47.32
44138;BME280;29800;55.942;37.314;2023-02-22T06:24:42;98611.06;;;-12.09;47.21
44138;BME280;29800;55.942;37.314;2023-02-22T06:27:08;98615.69;;;-12.01;47.31
44138;BME280;29800;55.942;37.314;2023-02-22T06:29:34;98610.03;;;-11.96;47.11
44138;BME280;29800;55.942;37.314;2023-02-22T06:32:00;98619.84;;;-11.89;47.00
44138;BME280;29800;55.942;37.314;2023-02-22T06:34:26;98619.47;;;-11.74;47.08
44138;BME280;29800;55.942;37.314;2023-02-22T06:36:52;98622.53;;;-11.69;47.02
44138;BME280;29800;55.942;37.314;2023-02-22T06:39:18;98625.19;;;-11.59;47.07
44138;BME280;29800;55.942;37.314;2023-02-22T06:41:46;98632.69;;;-11.65;47.35
44138;BME280;29800;55.942;37.314;2023-02-22T06:44:13;98625.19;;;-11.59;46.86
44138;BME280;29800;55.942;37.314;2023-02-22T06:46:46;98632.88;;;-11.47;47.06
44138;BME280;29800;55.942;37.314;2023-02-22T06:49:13;98635.25;;;-11.43;47.06
44138;BME280;29800;55.942;37.314;2023-02-22T06:51:39;98632.88;;;-11.37;46.75
44138;BME280;29800;55.942;37.314;2023-02-22T06:54:06;98630.91;;;-11.44;46.48
44138;BME280;29800;55.942;37.314;2023-02-22T06:56:32;98642.75;;;-11.39;46.60
44138;BME280;29800;55.942;37.314;2023-02-22T06:58:58;98633.31;;;-11.12;46.51
44138;BME280;29800;55.942;37.314;2023-02-22T07:01:27;98635.81;;;-11.01;46.06
44138;BME280;29800;55.942;37.314;2023-02-22T07:03:53;98643.88;;;-10.93;46.40
44138;BME280;29800;55.942;37.314;2023-02-22T07:06:20;98647.22;;;-10.91;45.99
44138;BME280;29800;55.942;37.314;2023-02-22T07:08:47;98640.69;;;-10.86;46.04
44138;BME280;29800;55.942;37.314;2023-02-22T07:11:13;98647.09;;;-10.89;46.26
44138;BME280;29800;55.942;37.314;2023-02-22T07:13:40;98644.72;;;-10.82;45.83
44138;BME280;29800;55.942;37.314;2023-02-22T07:16:07;98650.72;;;-10.80;46.35
44138;BME280;29800;55.942;37.314;2023-02-22T07:18:33;98648.88;;;-10.70;46.02
44138;BME280;29800;55.942;37.314;2023-02-22T07:20:59;98643.72;;;-10.52;46.13
44138;BME280;29800;55.942;37.314;2023-02-22T07:23:25;98645.78;;;-10.46;45.84
44138;BME280;29800;55.942;37.314;2023-02-22T07:25:51;98645.13;;;-10.30;45.94
44138;BME280;29800;55.942;37.314;2023-02-22T07:28:17;98658.88;;;-10.17;45.13
44138;BME280;29800;55.942;37.314;2023-02-22T07:30:44;98657.47;;;-10.11;45.25
44138;BME280;29800;55.942;37.314;2023-02-22T07:33:11;98664.88;;;-10.14;45.97
44138;BME280;29800;55.942;37.314;2023-02-22T07:35:46;98667.94;;;-10.09;45.56
44138;BME280;29800;55.942;37.314;2023-02-22T07:38:14;98676.94;;;-10.02;46.06
44138;BME280;29800;55.942;37.314;2023-02-22T07:40:41;98680.22;;;-9.81;45.02
44138;BME280;29800;55.942;37.314;2023-02-22T07:43:19;98682.88;;;-9.53;44.91
44138;BME280;29800;55.942;37.314;2023-02-22T07:45:49;98676.00;;;-9.73;44.60
44138;BME280;29800;55.942;37.314;2023-02-22T07:48:16;98687.09;;;-9.60;45.27
44138;BME280;29800;55.942;37.314;2023-02-22T07:50:43;98687.69;;;-9.38;44.46
44138;BME280;29800;55.942;37.314;2023-02-22T07:53:15;98693.69;;;-9.18;44.75
44138;BME280;29800;55.942;37.314;2023-02-22T07:55:43;98700.53;;;-9.16;44.79
44138;BME280;29800;55.942;37.314;2023-02-22T07:58:12;98689.09;;;-8.98;43.46
44138;BME280;29800;55.942;37.314;2023-02-22T08:00:40;98699.94;;;-8.74;43.81
44138;BME280;29800;55.942;37.314;2023-02-22T08:03:10;98703.25;;;-8.54;43.15
44138;BME280;29800;55.942;37.314;2023-02-22T08:05:38;98700.72;;;-8.37;43.43
44138;BME280;29800;55.942;37.314;2023-02-22T08:08:06;98690.78;;;-8.09;42.83
44138;BME280;29800;55.942;37.314;2023-02-22T08:10:33;98688.31;;;-8.02;42.34
44138;BME280;29800;55.942;37.314;2023-02-22T08:13:00;98691.59;;;-7.82;42.70
44138;BME280;29800;55.942;37.314;2023-02-22T08:15:31;98689.97;;;-7.41;41.76
44138;BME280;29800;55.942;37.314;2023-02-22T08:17:58;98704.19;;;-6.99;41.19
44138;BME280;29800;55.942;37.314;2023-02-22T08:20:27;98704.59;;;-6.61;41.04
44138;BME280;29800;55.942;37.314;2023-02-22T08:22:54;98703.94;;;-6.30;40.49
44138;BME280;29800;55.942;37.314;2023-02-22T08:25:23;98703.59;;;-6.11;40.09
44138;BME280;29800;55.942;37.314;2023-02-22T08:27:51;98709.22;;;-5.97;39.65
44138;BME280;29800;55.942;37.314;2023-02-22T08:30:20;98706.75;;;-5.59;39.50
44138;BME280;29800;55.942;37.314;2023-02-22T08:32:48;98704.13;;;-5.20;39.13
44138;BME280;29800;55.942;37.314;2023-02-22T08:35:16;98714.34;;;-4.92;38.42
44138;BME280;29800;55.942;37.314;2023-02-22T08:37:54;98712.09;;;-4.57;38.41
44138;BME280;29800;55.942;37.314;2023-02-22T08:40:23;98719.75;;;-4.77;37.56
44138;BME280;29800;55.942;37.314;2023-02-22T08:42:49;98717.09;;;-4.77;37.98
44138;BME280;29800;55.942;37.314;2023-02-22T08:45:16;98719.94;;;-4.32;37.82
44138;BME280;29800;55.942;37.314;2023-02-22T08:47:42;98722.06;;;-3.90;37.33
44138;BME280;29800;55.942;37.314;2023-02-22T08:50:10;98731.47;;;-3.94;36.29
44138;BME280;29800;55.942;37.314;2023-02-22T08:52:40;98719.75;;;-3.93;36.06
44138;BME280;29800;55.942;37.314;2023-02-22T08:55:06;98723.66;;;-3.80;36.32
44138;BME280;29800;55.942;37.314;2023-02-22T08:57:32;98716.94;;;-3.76;36.17
44138;BME280;29800;55.942;37.314;2023-02-22T08:59:58;98723.97;;;-3.60;36.24
44138;BME280;29800;55.942;37.314;2023-02-22T09:02:24;98731.34;;;-3.47;35.17
44138;BME280;29800;55.942;37.314;2023-02-22T09:04:50;98732.63;;;-3.43;35.78
44138;BME280;29800;55.942;37.314;2023-02-22T09:07:16;98731.06;;;-3.38;35.17
44138;BME280;29800;55.942;37.314;2023-02-22T09:09:43;98731.16;;;-3.31;35.25
44138;BME280;29800;55.942;37.314;2023-02-22T09:12:09;98729.31;;;-3.30;34.75
44138;BME280;29800;55.942;37.314;2023-02-22T09:14:35;98728.63;;;-3.03;34.64
44138;BME280;29800;55.942;37.314;2023-02-22T09:17:01;98741.84;;;-2.65;34.60
44138;BME280;29800;55.942;37.314;2023-02-22T09:19:27;98747.41;;;-2.23;34.02
44138;BME280;29800;55.942;37.314;2023-02-22T09:21:55;98741.47;;;-1.97;33.56
44138;BME280;29800;55.942;37.314;2023-02-22T09:24:22;98741.09;;;-1.94;32.96
44138;BME280;29800;55.942;37.314;2023-02-22T09:26:48;98745.31;;;-2.06;33.17
44138;BME280;29800;55.942;37.314;2023-02-22T09:29:23;98756.75;;;-2.41;33.11
44138;BME280;29800;55.942;37.314;2023-02-22T09:31:51;98749.22;;;-2.52;33.23
44138;BME280;29800;55.942;37.314;2023-02-22T09:34:21;98748.41;;;-2.67;33.14
44138;BME280;29800;55.942;37.314;2023-02-22T09:36:55;98752.06;;;-2.90;33.90
44138;BME280;29800;55.942;37.314;2023-02-22T09:39:24;98746.50;;;-2.73;33.66
44138;BME280;29800;55.942;37.314;2023-02-22T09:42:23;98754.16;;;-2.70;33.54
44138;BME280;29800;55.942;37.314;2023-02-22T09:45:02;98756.69;;;-2.99;33.49
44138;BME280;29800;55.942;37.314;2023-02-22T09:47:51;98759.84;;;-3.10;34.19
44138;BME280;29800;55.942;37.314;2023-02-22T09:50:22;98770.63;;;-3.48;34.24
44138;BME280;29800;55.942;37.314;2023-02-22T09:52:59;98767.50;;;-3.52;34.46
44138;BME280;29800;55.942;37.314;2023-02-22T09:55:41;98759.56;;;-3.45;34.74
44138;BME280;29800;55.942;37.314;2023-02-22T09:58:25;98771.50;;;-3.47;34.91
44138;BME280;29800;55.942;37.314;2023-02-22T10:00:57;98764.56;;;-3.95;34.41
44138;BME280;29800;55.942;37.314;2023-02-22T10:03:46;98770.13;;;-4.43;35.40
44138;BME280;29800;55.942;37.314;2023-02-22T10:06:16;98771.31;;;-4.76;35.70
44138;BME280;29800;55.942;37.314;2023-02-22T10:08:46;98771.25;;;-5.00;35.98
44138;BME280;29800;55.942;37.314;2023-02-22T10:16:42;98782.69;;;-5.22;36.64
44138;BME280;29800;55.942;37.314;2023-02-22T10:19:35;98775.31;;;-5.12;37.04
44138;BME280;29800;55.942;37.314;2023-02-22T10:22:20;98779.84;;;-4.81;36.44
44138;BME280;29800;55.942;37.314;2023-02-22T10:25:15;98783.81;;;-4.46;36.59
44138;BME280;29800;55.942;37.314;2023-02-22T10:27:51;98790.47;;;-4.41;36.41
44138;BME280;29800;55.942;37.314;2023-02-22T10:30:22;98796.38;;;-4.54;36.27
44138;BME280;29800;55.942;37.314;2023-02-22T10:32:57;98794.34;;;-4.75;36.25
44138;BME280;29800;55.942;37.314;2023-02-22T10:35:32;98799.47;;;-5.05;36.66
44138;BME280;29800;55.942;37.314;2023-02-22T10:38:21;98790.75;;;-4.99;37.31
44138;BME280;29800;55.942;37.314;2023-02-22T10:40:55;98798.28;;;-5.03;37.08
44138;BME280;29800;55.942;37.314;2023-02-22T10:43:23;98798.97;;;-5.09;37.25
44138;BME280;29800;55.942;37.314;2023-02-22T10:45:57;98800.03;;;-5.18;37.43
44138;BME280;29800;55.942;37.314;2023-02-22T10:48:27;98809.25;;;-5.37;37.54
44138;BME280;29800;55.942;37.314;2023-02-22T10:50:59;98803.94;;;-5.62;38.07
44138;BME280;29800;55.942;37.314;2023-02-22T10:53:27;98809.31;;;-5.86;38.15
44138;BME280;29800;55.942;37.314;2023-02-22T10:56:08;98804.63;;;-5.76;38.47
44138;BME280;29800;55.942;37.314;2023-02-22T10:58:41;98805.31;;;-5.91;37.91
44138;BME280;29800;55.942;37.314;2023-02-22T11:01:23;98802.13;;;-5.86;38.85
44138;BME280;29800;55.942;37.314;2023-02-22T11:04:00;98809.81;;;-5.91;38.80
44138;BME280;29800;55.942;37.314;2023-02-22T11:06:27;98808.16;;;-6.08;38.51
44138;BME280;29800;55.942;37.314;2023-02-22T11:09:24;98811.50;;;-6.06;38.62
44138;BME280;29800;55.942;37.314;2023-02-22T11:12:06;98818.50;;;-6.05;38.80
44138;BME280;29800;55.942;37.314;2023-02-22T11:14:34;98814.66;;;-6.11;38.80
44138;BME280;29800;55.942;37.314;2023-02-22T11:17:00;98818.50;;;-6.14;38.74
44138;BME280;29800;55.942;37.314;2023-02-22T11:19:32;98811.50;;;-6.23;38.81
44138;BME280;29800;55.942;37.314;2023-02-22T11:24:31;98823.31;;;-6.25;38.75
44138;BME280;29800;55.942;37.314;2023-02-22T11:27:00;98824.97;;;-6.41;39.57
44138;BME280;29800;55.942;37.314;2023-02-22T11:29:32;98819.63;;;-6.41;39.70
44138;BME280;29800;55.942;37.314;2023-02-22T11:32:02;98830.81;;;-6.21;39.73
44138;BME280;29800;55.942;37.314;2023-02-22T11:34:33;98831.66;;;-6.04;39.10
44138;BME280;29800;55.942;37.314;2023-02-22T11:37:17;98834.78;;;-5.84;39.18
44138;BME280;29800;55.942;37.314;2023-02-22T11:40:03;98838.47;;;-5.93;38.72
44138;BME280;29800;55.942;37.314;2023-02-22T11:42:30;98838.63;;;-6.19;38.87
44138;BME280;29800;55.942;37.314;2023-02-22T11:45:09;98844.44;;;-6.32;39.55
44138;BME280;29800;55.942;37.314;2023-02-22T11:47:47;98844.44;;;-6.40;39.84
44138;BME280;29800;55.942;37.314;2023-02-22T11:59:54;98844.69;;;-6.60;40.58
44138;BME280;29800;55.942;37.314;2023-02-22T12:01:52;98844.69;;;-6.68;40.54
44138;BME280;29800;55.942;37.314;2023-02-22T12:18:20;98858.44;;;-6.81;41.62
44138;BME280;29800;55.942;37.314;2023-02-22T12:20:56;98863.91;;;-6.82;41.52
44138;BME280;29800;55.942;37.314;2023-02-22T12:23:42;98866.53;;;-6.91;41.86
44138;BME280;29800;55.942;37.314;2023-02-22T12:26:19;98866.72;;;-6.84;42.19
44138;BME280;29800;55.942;37.314;2023-02-22T12:31:32;98872.78;;;-6.74;41.37
44138;BME280;29800;55.942;37.314;2023-02-22T12:34:06;98882.50;;;-6.91;41.49
44138;BME280;29800;55.942;37.314;2023-02-22T12:36:42;98879.38;;;-6.86;41.84
44138;BME280;29800;55.942;37.314;2023-02-22T12:39:38;98889.25;;;-6.70;41.84
44138;BME280;29800;55.942;37.314;2023-02-22T12:42:16;98886.72;;;-6.80;41.61
44138;BME280;29800;55.942;37.314;2023-02-22T12:44:49;98900.47;;;-6.93;41.47
44138;BME280;29800;55.942;37.314;2023-02-22T12:47:21;98897.44;;;-6.98;42.21
44138;BME280;29800;55.942;37.314;2023-02-22T12:49:58;98900.19;;;-6.81;42.12
44138;BME280;29800;55.942;37.314;2023-02-22T12:52:41;98908.88;;;-6.71;41.79
44138;BME280;29800;55.942;37.314;2023-02-22T13:03:05;98920.94;;;-6.93;42.45
44138;BME280;29800;55.942;37.314;2023-02-22T13:05:45;98921.72;;;-7.01;42.28
44138;BME280;29800;55.942;37.314;2023-02-22T13:08:21;98921.03;;;-7.03;42.46
44138;BME280;29800;55.942;37.314;2023-02-22T13:11:32;98924.16;;;-6.81;42.79
44138;BME280;29800;55.942;37.314;2023-02-22T13:16:57;98934.13;;;-6.84;42.35
44138;BME280;29800;55.942;37.314;2023-02-22T13:22:43;98935.47;;;-6.79;42.57
44138;BME280;29800;55.942;37.314;2023-02-22T13:28:42;98944.97;;;-6.77;42.00
44138;BME280;29800;55.942;37.314;2023-02-22T13:31:14;98943.91;;;-7.10;42.76
44138;BME280;29800;55.942;37.314;2023-02-22T13:36:36;98957.53;;;-7.13;43.16
44138;BME280;29800;55.942;37.314;2023-02-22T13:53:08;98963.56;;;-6.85;42.35
44138;BME280;29800;55.942;37.314;2023-02-22T13:55:38;98963.34;;;-6.92;42.79
44138;BME280;29800;55.942;37.314;2023-02-22T13:58:07;98960.16;;;-6.95;43.01
44138;BME280;29800;55.942;37.314;2023-02-22T14:00:46;98960.25;;;-7.05;42.75
44138;BME280;29800;55.942;37.314;2023-02-22T14:10:55;98973.38;;;-7.30;43.29
44138;BME280;29800;55.942;37.314;2023-02-22T14:13:23;98971.66;;;-7.39;43.81
44138;BME280;29800;55.942;37.314;2023-02-22T14:18:44;98969.84;;;-7.74;44.37
44138;BME280;29800;55.942;37.314;2023-02-22T14:21:17;98973.66;;;-7.77;44.66
44138;BME280;29800;55.942;37.314;2023-02-22T14:23:50;98975.38;;;-7.68;44.58
44138;BME280;29800;55.942;37.314;2023-02-22T14:26:35;98979.13;;;-7.61;44.41
44138;BME280;29800;55.942;37.314;2023-02-22T14:34:12;98977.72;;;-7.47;44.26
44138;BME280;29800;55.942;37.314;2023-02-22T14:39:45;98986.22;;;-7.43;44.37
44138;BME280;29800;55.942;37.314;2023-02-22T14:42:32;98986.00;;;-7.68;44.90
44138;BME280;29800;55.942;37.314;2023-02-22T14:45:23;98988.28;;;-7.73;44.56
44138;BME280;29800;55.942;37.314;2023-02-22T14:53:26;98996.56;;;-7.76;44.90
44138;BME280;29800;55.942;37.314;2023-02-22T14:56:05;98988.06;;;-7.80;45.30
44138;BME280;29800;55.942;37.314;2023-02-22T14:58:43;98989.19;;;-7.82;44.97
44138;BME280;29800;55.942;37.314;2023-02-22T15:03:46;98995.41;;;-7.91;44.99
44138;BME280;29800;55.942;37.314;2023-02-22T15:06:18;99004.66;;;-7.96;45.75
44138;BME280;29800;55.942;37.314;2023-02-22T15:08:47;98997.28;;;-8.02;45.89
44138;BME280;29800;55.942;37.314;2023-02-22T15:11:22;99008.22;;;-8.05;45.89